createdAt,value
2019-02-23T00:01:16.549Z,39.07
2019-02-23T00:03:43.772Z,39.60
2019-02-23T00:06:10.995Z,40.43
2019-02-23T00:08:38.211Z,35.30
2019-02-23T00:11:05.774Z,44.37
2019-02-23T00:13:33.334Z,41.90
2019-02-23T00:16:00.898Z,41.67
2019-02-23T00:18:28.119Z,40.00
2019-02-23T00:20:55.381Z,44.03
2019-02-23T00:23:22.707Z,44.77
2019-02-23T00:25:50.308Z,37.40
2019-02-23T00:28:17.872Z,43.27
2019-02-23T00:30:45.188Z,39.60
2019-02-23T00:33:12.431Z,41.73
2019-02-23T00:35:39.972Z,36.90
2019-02-23T00:38:07.235Z,42.50
2019-02-23T00:40:35.028Z,36.87
2019-02-23T00:43:02.626Z,38.47
2019-02-23T00:45:29.863Z,33.07
2019-02-23T00:47:57.436Z,40.00
2019-02-23T00:50:26.152Z,72.80
2019-02-23T00:52:53.673Z,78.80
2019-02-23T00:55:21.217Z,64.67
2019-02-23T00:57:48.777Z,58.63
2019-02-23T01:00:16.035Z,57.73
2019-02-23T01:02:43.587Z,48.87
2019-02-23T01:05:10.835Z,50.07
2019-02-23T01:07:38.052Z,45.23
2019-02-23T01:10:07.140Z,40.23
2019-02-23T01:12:34.645Z,53.37
2019-02-23T01:15:01.873Z,59.00
2019-02-23T01:17:29.451Z,49.47
2019-02-23T01:19:56.729Z,49.87
2019-02-23T01:22:24.785Z,43.17
2019-02-23T01:24:52.004Z,44.57
2019-02-23T01:27:19.228Z,37.20
2019-02-23T01:29:46.735Z,37.70
2019-02-23T01:32:14.048Z,36.87
2019-02-23T01:34:41.267Z,35.83
2019-02-23T01:37:08.487Z,33.50
2019-02-23T01:39:35.707Z,38.00
2019-02-23T01:42:03.204Z,40.23
2019-02-23T01:44:30.756Z,34.73
2019-02-23T01:46:57.979Z,34.73
2019-02-23T01:49:25.204Z,33.60
2019-02-23T01:51:52.555Z,32.67
2019-02-23T01:54:19.773Z,30.03
2019-02-23T01:56:47.021Z,25.03
2019-02-23T01:59:14.265Z,27.60
2019-02-23T02:01:41.823Z,32.23
2019-02-23T02:04:09.041Z,28.17
2019-02-23T02:06:36.282Z,30.27
2019-02-23T02:09:04.811Z,27.77
2019-02-23T02:11:32.058Z,27.33
2019-02-23T02:13:59.279Z,29.67
2019-02-23T02:16:26.977Z,28.63
2019-02-23T02:18:54.541Z,26.17
2019-02-23T02:21:21.779Z,28.00
2019-02-23T02:23:49.000Z,31.50
2019-02-23T02:26:16.245Z,25.97
2019-02-23T02:28:43.747Z,28.67
2019-02-23T02:31:11.009Z,28.87
2019-02-23T02:34:14.486Z,28.13
2019-02-23T02:36:42.165Z,26.27
2019-02-23T02:39:11.113Z,25.53
2019-02-23T02:41:38.721Z,25.03
2019-02-23T02:44:06.276Z,23.30
2019-02-23T02:46:33.832Z,23.23
2019-02-23T02:49:01.391Z,24.77
2019-02-23T02:51:28.609Z,24.23
2019-02-23T02:53:56.096Z,26.97
2019-02-23T02:56:23.315Z,27.83
2019-02-23T02:58:50.567Z,23.67
2019-02-23T03:01:17.784Z,26.17
2019-02-23T03:03:45.105Z,25.57
2019-02-23T03:06:12.664Z,24.30
2019-02-23T03:08:40.232Z,26.90
2019-02-23T03:11:07.741Z,22.73
2019-02-23T03:13:34.960Z,21.87
2019-02-23T03:16:02.176Z,27.27
2019-02-23T03:18:29.950Z,21.83
2019-02-23T03:20:57.504Z,22.83
2019-02-23T03:23:24.755Z,25.67
2019-02-23T03:25:52.072Z,23.23
2019-02-23T03:28:19.349Z,26.17
2019-02-23T03:30:46.662Z,24.70
2019-02-23T03:33:13.905Z,24.97
2019-02-23T03:35:41.133Z,26.80
2019-02-23T03:38:08.372Z,28.40
2019-02-23T03:40:35.600Z,25.57
2019-02-23T03:43:03.200Z,26.53
2019-02-23T03:45:30.422Z,26.63
2019-02-23T03:47:57.668Z,26.90
2019-02-23T03:50:25.268Z,25.97
2019-02-23T03:52:52.845Z,25.43
2019-02-23T03:55:20.059Z,23.90
2019-02-23T03:57:47.336Z,27.13
2019-02-23T04:00:14.558Z,24.33
2019-02-23T04:02:42.128Z,27.27
2019-02-23T04:05:09.436Z,25.73
2019-02-23T04:07:36.677Z,27.10
2019-02-23T04:10:04.336Z,26.47
2019-02-23T04:12:31.557Z,25.30
2019-02-23T04:14:58.776Z,24.77
2019-02-23T04:17:25.996Z,23.53
2019-02-23T04:19:53.491Z,28.37
2019-02-23T04:22:20.721Z,26.60
2019-02-23T04:24:47.944Z,26.57
2019-02-23T04:27:15.159Z,27.93
2019-02-23T04:29:42.707Z,26.33
2019-02-23T04:32:09.929Z,25.50
2019-02-23T04:34:37.158Z,27.83
2019-02-23T04:37:04.373Z,25.87
2019-02-23T04:39:31.493Z,27.43
2019-02-23T04:41:59.070Z,27.87
2019-02-23T04:44:26.298Z,30.23
2019-02-23T04:46:53.776Z,28.47
2019-02-23T04:49:20.998Z,28.17
2019-02-23T04:51:48.240Z,28.77
2019-02-23T04:54:15.460Z,28.80
2019-02-23T04:56:42.783Z,29.40
2019-02-23T04:59:10.348Z,31.20
2019-02-23T05:01:37.568Z,30.93
2019-02-23T05:04:04.788Z,31.97
2019-02-23T05:06:32.009Z,30.43
2019-02-23T05:08:59.270Z,30.93
2019-02-23T05:11:26.486Z,30.03
2019-02-23T05:13:53.720Z,32.03
2019-02-23T05:16:21.311Z,30.43
2019-02-23T05:18:48.867Z,28.37
2019-02-23T05:21:26.033Z,32.90
2019-02-23T05:23:45.325Z,33.27
2019-02-23T05:26:12.566Z,31.20
2019-02-23T05:28:40.137Z,31.33
2019-02-23T05:31:07.684Z,29.67
2019-02-23T05:33:34.916Z,31.90
2019-02-23T05:36:02.152Z,32.70
2019-02-23T05:38:29.387Z,31.33
2019-02-23T05:40:56.620Z,31.73
2019-02-23T05:43:24.156Z,26.47
2019-02-23T05:45:51.520Z,32.90
2019-02-23T05:48:21.460Z,31.77
2019-02-23T05:50:48.691Z,31.00
2019-02-23T05:53:16.227Z,30.60
2019-02-23T05:55:43.473Z,29.87
2019-02-23T05:58:11.259Z,31.53
2019-02-23T06:00:38.480Z,31.83
2019-02-23T06:03:05.734Z,31.97
2019-02-23T06:05:33.920Z,33.00
2019-02-23T06:08:01.168Z,33.13
2019-02-23T06:10:28.663Z,34.90
2019-02-23T06:12:55.971Z,32.40
2019-02-23T06:15:23.208Z,34.33
2019-02-23T06:17:50.450Z,32.50
2019-02-23T06:20:17.948Z,32.53
2019-02-23T06:22:46.897Z,33.97
2019-02-23T06:25:14.360Z,37.97
2019-02-23T06:27:41.691Z,34.97
2019-02-23T06:30:10.375Z,34.40
2019-02-23T06:32:38.191Z,43.53
2019-02-23T06:35:06.424Z,46.07
2019-02-23T06:37:33.950Z,41.63
2019-02-23T06:40:01.165Z,38.33
2019-02-23T06:42:28.388Z,35.97
2019-02-23T06:44:55.611Z,40.07
2019-02-23T06:47:23.140Z,34.73
2019-02-23T06:49:50.368Z,33.43
2019-02-23T06:52:17.973Z,34.60
2019-02-23T06:54:45.515Z,35.03
2019-02-23T06:57:12.974Z,36.57
2019-02-23T06:59:41.239Z,33.97
2019-02-23T07:02:08.477Z,33.50
2019-02-23T07:04:36.052Z,32.97
2019-02-23T07:07:03.281Z,31.50
2019-02-23T07:09:30.601Z,34.53
2019-02-23T07:11:57.921Z,32.83
2019-02-23T07:14:25.463Z,32.20
2019-02-23T07:16:52.587Z,31.13
2019-02-23T07:19:20.279Z,33.67
2019-02-23T07:21:47.496Z,32.10
2019-02-23T07:24:15.087Z,33.30
2019-02-23T07:26:42.339Z,31.63
2019-02-23T07:29:09.905Z,31.17
2019-02-23T07:31:37.134Z,30.10
2019-02-23T07:34:04.386Z,30.67
2019-02-23T07:36:31.606Z,31.37
2019-02-23T07:38:59.123Z,27.27
2019-02-23T07:41:27.191Z,26.93
2019-02-23T07:43:55.279Z,25.73
2019-02-23T07:46:22.929Z,26.37
2019-02-23T07:48:50.147Z,26.60
2019-02-23T07:51:17.452Z,27.97
2019-02-23T07:53:44.723Z,27.13
2019-02-23T07:56:11.967Z,27.13
2019-02-23T07:58:39.180Z,29.13
2019-02-23T08:01:06.417Z,23.90
2019-02-23T08:03:33.746Z,26.57
2019-02-23T08:06:00.974Z,25.10
2019-02-23T08:08:28.293Z,28.53
2019-02-23T08:10:55.522Z,27.63
2019-02-23T08:13:22.758Z,27.80
2019-02-23T08:15:49.976Z,28.87
2019-02-23T08:18:17.206Z,26.97
2019-02-23T08:20:44.432Z,27.00
2019-02-23T08:23:12.026Z,28.57
2019-02-23T08:25:39.564Z,25.63
2019-02-23T08:28:06.791Z,29.43
2019-02-23T08:30:34.372Z,28.20
2019-02-23T08:33:01.605Z,29.80
2019-02-23T08:35:28.832Z,29.03
2019-02-23T08:37:56.337Z,26.90
2019-02-23T08:40:23.887Z,27.83
2019-02-23T08:42:51.140Z,28.53
2019-02-23T08:45:18.360Z,40.37
2019-02-23T08:47:45.952Z,30.03
2019-02-23T08:50:13.196Z,28.40
2019-02-23T08:52:48.627Z,32.43
2019-02-23T08:55:09.469Z,30.53
2019-02-23T08:57:36.696Z,30.10
2019-02-23T09:00:05.042Z,30.80
2019-02-23T09:02:32.280Z,29.27
2019-02-23T09:04:59.539Z,31.33
2019-02-23T09:07:26.772Z,28.73
2019-02-23T09:09:53.995Z,30.97
2019-02-23T09:12:21.291Z,27.03
2019-02-23T09:14:48.692Z,29.90
2019-02-23T09:17:15.932Z,26.73
2019-02-23T09:19:43.500Z,28.07
2019-02-23T09:22:10.780Z,28.03
2019-02-23T09:24:38.313Z,24.97
2019-02-23T09:27:05.890Z,27.30
2019-02-23T09:29:33.448Z,26.40
2019-02-23T09:32:00.849Z,26.80
2019-02-23T09:34:28.449Z,26.97
2019-02-23T09:36:55.772Z,27.53
2019-02-23T09:39:23.360Z,27.97
2019-02-23T09:41:50.916Z,25.80
2019-02-23T09:44:18.149Z,26.57
2019-02-23T09:46:45.397Z,24.40
2019-02-23T09:49:12.893Z,25.90
2019-02-23T09:51:40.281Z,23.20
2019-02-23T09:54:07.610Z,22.53
2019-02-23T09:56:34.861Z,24.93
2019-02-23T09:59:02.589Z,26.10
2019-02-23T10:01:30.264Z,22.77
2019-02-23T10:03:57.583Z,24.57
2019-02-23T10:06:24.838Z,23.00
2019-02-23T10:08:52.052Z,22.90
2019-02-23T10:11:19.352Z,27.97
2019-02-23T10:13:46.624Z,23.83
2019-02-23T10:16:13.885Z,28.13
2019-02-23T10:18:41.104Z,25.93
2019-02-23T10:21:08.348Z,21.33
2019-02-23T10:23:35.571Z,34.73
2019-02-23T10:26:03.087Z,25.20
2019-02-23T10:28:30.312Z,27.63
2019-02-23T10:30:57.944Z,22.53
2019-02-23T10:33:25.273Z,19.80
2019-02-23T10:35:52.509Z,21.00
2019-02-23T10:38:19.728Z,19.17
2019-02-23T10:40:46.963Z,21.40
2019-02-23T10:43:14.464Z,20.03
2019-02-23T10:45:42.028Z,20.97
2019-02-23T10:48:09.583Z,20.13
2019-02-23T10:50:36.815Z,20.40
2019-02-23T10:53:04.512Z,20.23
2019-02-23T10:55:32.060Z,20.43
2019-02-23T10:57:59.611Z,19.50
2019-02-23T11:00:27.165Z,20.07
2019-02-23T11:02:54.731Z,20.93
2019-02-23T11:05:22.395Z,20.43
2019-02-23T11:07:49.777Z,19.50
2019-02-23T11:10:18.744Z,20.63
2019-02-23T11:12:45.989Z,19.93
2019-02-23T11:15:13.624Z,18.97
2019-02-23T11:17:40.952Z,19.47
2019-02-23T11:20:09.048Z,20.77
2019-02-23T11:22:36.304Z,21.63
2019-02-23T11:25:04.504Z,21.43
2019-02-23T11:27:32.063Z,21.03
2019-02-23T11:29:59.625Z,20.90
2019-02-23T11:32:27.185Z,20.27
2019-02-23T11:34:54.400Z,19.80
2019-02-23T11:37:21.659Z,20.03
2019-02-23T11:39:48.880Z,21.13
2019-02-23T11:42:16.247Z,20.07
2019-02-23T11:44:43.869Z,19.47
2019-02-23T11:47:11.419Z,19.83
2019-02-23T11:49:38.640Z,19.80
2019-02-23T11:52:06.169Z,19.73
2019-02-23T11:54:33.680Z,18.67
2019-02-23T11:57:00.931Z,19.97
2019-02-23T11:59:28.153Z,17.70
2019-02-23T12:01:55.376Z,18.63
2019-02-23T12:04:22.601Z,19.50
2019-02-23T12:06:49.830Z,18.83
2019-02-23T12:09:17.084Z,18.40
2019-02-23T12:11:44.332Z,19.03
2019-02-23T12:14:11.791Z,17.90
2019-02-23T12:16:39.012Z,19.43
2019-02-23T12:19:06.244Z,17.77
2019-02-23T12:21:33.756Z,18.90
2019-02-23T12:24:05.936Z,20.33
2019-02-23T12:26:30.109Z,19.20
2019-02-23T12:28:57.333Z,19.17
2019-02-23T12:31:24.818Z,19.97
2019-02-23T12:33:52.368Z,24.53
2019-02-23T12:36:19.586Z,20.10
2019-02-23T12:38:47.176Z,19.70
2019-02-23T12:41:14.419Z,19.23
2019-02-23T12:43:42.023Z,16.27
2019-02-23T12:46:09.256Z,18.63
2019-02-23T12:48:36.514Z,19.13
2019-02-23T12:51:04.175Z,18.47
2019-02-23T12:53:31.713Z,19.80
2019-02-23T12:55:58.931Z,19.70
2019-02-23T12:58:26.230Z,19.00
2019-02-23T13:00:54.185Z,20.07
2019-02-23T13:03:21.449Z,24.73
2019-02-23T13:05:48.762Z,18.30
2019-02-23T13:08:16.018Z,20.40
2019-02-23T13:10:43.333Z,19.50
2019-02-23T13:13:34.604Z,19.50
2019-02-23T13:16:13.288Z,18.37
2019-02-23T13:19:23.085Z,18.13
2019-02-23T13:22:27.919Z,22.30
2019-02-23T13:25:22.396Z,21.80
2019-02-23T13:28:14.535Z,19.37
2019-02-23T13:31:22.749Z,22.10
2019-02-23T13:34:24.820Z,20.97
2019-02-23T13:37:29.461Z,20.40
2019-02-23T13:40:22.534Z,22.63
2019-02-23T13:43:05.319Z,21.97
2019-02-23T13:46:02.130Z,20.60
2019-02-23T13:49:00.923Z,22.27
2019-02-23T13:52:40.500Z,22.37
2019-02-23T13:56:00.519Z,21.20
2019-02-23T13:58:38.380Z,23.03
2019-02-23T14:01:22.183Z,19.20
2019-02-23T14:04:37.050Z,18.97
2019-02-23T14:08:04.564Z,19.33
2019-02-23T14:11:00.363Z,22.27
2019-02-23T14:13:56.422Z,18.97
2019-02-23T14:17:08.737Z,19.33
2019-02-23T14:20:08.844Z,21.80
2019-02-23T14:23:07.689Z,22.23
2019-02-23T14:25:51.056Z,20.37
2019-02-23T14:28:32.855Z,21.07
2019-02-23T14:31:42.148Z,20.17
2019-02-23T14:34:35.352Z,19.20
2019-02-23T14:37:26.567Z,19.17
2019-02-23T14:40:14.436Z,21.57
2019-02-23T14:43:06.108Z,18.57
2019-02-23T14:46:03.621Z,18.63
2019-02-23T14:49:01.498Z,17.63
2019-02-23T14:52:01.068Z,20.17
2019-02-23T14:55:00.842Z,20.23
2019-02-23T14:58:17.109Z,20.07
2019-02-23T15:01:24.980Z,18.10
2019-02-23T15:04:40.252Z,19.53
2019-02-23T15:07:58.179Z,18.40
2019-02-23T15:11:24.232Z,21.83
2019-02-23T15:14:44.492Z,19.20
2019-02-23T15:17:43.655Z,18.93
2019-02-23T15:20:33.503Z,20.23
2019-02-23T15:23:26.504Z,19.03
2019-02-23T15:26:40.920Z,21.00
2019-02-23T15:29:46.540Z,19.83
2019-02-23T15:33:07.285Z,18.63
2019-02-23T15:36:11.590Z,18.77
2019-02-23T15:39:14.019Z,19.90
2019-02-23T15:42:02.906Z,20.63
2019-02-23T15:45:26.447Z,18.97
2019-02-23T15:48:44.415Z,18.30
2019-02-23T15:51:11.939Z,19.50
2019-02-23T15:53:39.707Z,18.70
2019-02-23T15:56:07.736Z,20.17
2019-02-23T15:58:35.295Z,33.30
2019-02-23T16:01:02.859Z,18.23
2019-02-23T16:03:30.417Z,17.77
2019-02-23T16:05:57.708Z,19.47
2019-02-23T16:08:24.945Z,17.80
2019-02-23T16:10:52.232Z,17.27
2019-02-23T16:13:19.836Z,18.97
2019-02-23T16:15:47.392Z,18.60
2019-02-23T16:18:14.631Z,18.17
2019-02-23T16:20:41.868Z,20.87
2019-02-23T16:23:09.451Z,16.70
2019-02-23T16:25:38.613Z,17.27
2019-02-23T16:28:06.107Z,16.80
2019-02-23T16:30:33.344Z,14.77
2019-02-23T16:33:00.592Z,14.60
2019-02-23T16:35:28.276Z,13.70
2019-02-23T16:37:55.516Z,15.37
2019-02-23T16:40:23.083Z,15.17
2019-02-23T16:42:50.327Z,14.40
2019-02-23T16:45:17.896Z,15.77
2019-02-23T16:47:45.259Z,15.90
2019-02-23T16:50:12.804Z,14.70
2019-02-23T16:52:40.364Z,14.47
2019-02-23T16:55:07.949Z,16.83
2019-02-23T16:57:35.488Z,15.83
2019-02-23T17:00:03.299Z,16.87
2019-02-23T17:02:30.909Z,15.27
2019-02-23T17:04:58.136Z,16.07
2019-02-23T17:07:25.719Z,14.90
2019-02-23T17:09:52.958Z,15.70
2019-02-23T17:12:20.649Z,15.33
2019-02-23T17:14:47.992Z,15.23
2019-02-23T17:17:15.336Z,15.10
2019-02-23T17:19:42.551Z,15.77
2019-02-23T17:22:09.816Z,15.53
2019-02-23T17:24:37.171Z,16.60
2019-02-23T17:27:04.760Z,15.53
2019-02-23T17:29:31.976Z,16.70
2019-02-23T17:31:59.227Z,16.10
2019-02-23T17:34:26.740Z,17.37
2019-02-23T17:36:54.040Z,15.93
2019-02-23T17:39:21.259Z,17.13
2019-02-23T17:41:48.779Z,19.13
2019-02-23T17:44:16.365Z,27.80
2019-02-23T17:46:43.593Z,16.73
2019-02-23T17:49:11.155Z,15.58
2019-02-23T17:51:38.712Z,16.63
2019-02-23T17:54:05.956Z,15.97
2019-02-23T17:56:33.213Z,14.20
2019-02-23T17:59:03.811Z,14.63
2019-02-23T18:01:31.536Z,17.43
2019-02-23T18:03:58.776Z,13.97
2019-02-23T18:06:26.011Z,15.87
2019-02-23T18:08:53.570Z,22.73
2019-02-23T18:11:20.799Z,24.37
2019-02-23T18:13:48.056Z,17.03
2019-02-23T18:16:15.344Z,24.30
2019-02-23T18:18:42.881Z,20.53
2019-02-23T18:21:10.115Z,17.20
2019-02-23T18:23:37.364Z,17.97
2019-02-23T18:26:04.947Z,19.00
2019-02-23T18:28:33.015Z,20.20
2019-02-23T18:31:00.576Z,15.37
2019-02-23T18:33:28.235Z,15.20
2019-02-23T18:35:55.811Z,15.60
2019-02-23T18:38:23.763Z,14.60
2019-02-23T18:40:50.991Z,14.27
2019-02-23T18:43:18.260Z,16.23
2019-02-23T18:45:47.636Z,15.13
2019-02-23T18:48:14.977Z,16.00
2019-02-23T18:50:42.629Z,15.57
2019-02-23T18:53:09.976Z,14.93
2019-02-23T18:55:41.164Z,15.87
2019-02-23T18:58:06.668Z,15.23
2019-02-23T19:00:33.896Z,19.20
2019-02-23T19:03:01.163Z,16.60
2019-02-23T19:05:28.381Z,17.27
2019-02-23T19:07:56.016Z,14.53
2019-02-23T19:10:23.260Z,18.90
2019-02-23T19:12:50.824Z,18.30
2019-02-23T19:15:18.383Z,24.20
2019-02-23T19:17:45.621Z,85.00
2019-02-23T19:20:13.187Z,27.07
2019-02-23T19:22:40.407Z,17.43
2019-02-23T19:25:08.467Z,24.13
2019-02-23T19:27:35.968Z,22.00
2019-02-23T19:30:03.738Z,16.73
2019-02-23T19:32:31.295Z,17.83
2019-02-23T19:34:58.857Z,16.13
2019-02-23T19:37:26.128Z,14.73
2019-02-23T19:39:53.443Z,16.90
2019-02-23T19:42:20.663Z,15.63
2019-02-23T19:44:47.907Z,15.70
2019-02-23T19:47:21.708Z,17.87
2019-02-23T19:49:51.259Z,16.70
2019-02-23T19:52:18.837Z,15.40
2019-02-23T19:54:46.105Z,15.20
2019-02-23T19:57:13.647Z,15.80
2019-02-23T19:59:41.200Z,16.47
2019-02-23T20:02:08.440Z,15.67
2019-02-23T20:04:36.021Z,15.30
2019-02-23T20:07:03.699Z,18.40
2019-02-23T20:09:31.007Z,17.37
2019-02-23T20:11:58.468Z,18.93
2019-02-23T20:14:26.048Z,18.47
2019-02-23T20:16:53.267Z,16.43
2019-02-23T20:19:20.487Z,18.70
2019-02-23T20:21:48.000Z,16.27
2019-02-23T20:24:15.455Z,17.33
2019-02-23T20:26:42.780Z,15.03
2019-02-23T20:29:09.995Z,19.47
2019-02-23T20:31:37.207Z,17.30
2019-02-23T20:34:04.767Z,17.90
2019-02-23T20:36:32.335Z,16.77
2019-02-23T20:38:59.618Z,20.37
2019-02-23T20:41:26.920Z,20.93
2019-02-23T20:43:54.191Z,23.20
2019-02-23T20:46:21.525Z,21.03
2019-02-23T20:48:49.203Z,23.00
2019-02-23T20:51:16.444Z,19.20
2019-02-23T20:53:43.695Z,18.23
2019-02-23T20:56:11.373Z,17.80
2019-02-23T20:58:38.623Z,17.27
2019-02-23T21:01:05.844Z,20.23
2019-02-23T21:03:33.432Z,16.80
2019-02-23T21:06:00.660Z,16.43
2019-02-23T21:08:28.028Z,18.60
2019-02-23T21:10:55.687Z,15.77
2019-02-23T21:13:23.259Z,17.53
2019-02-23T21:15:50.723Z,16.70
2019-02-23T21:18:18.276Z,19.53
2019-02-23T21:20:45.833Z,17.50
2019-02-23T21:23:13.056Z,17.30
2019-02-23T21:25:40.539Z,18.37
2019-02-23T21:28:08.106Z,17.83
2019-02-23T21:30:35.352Z,17.07
2019-02-23T21:33:02.597Z,17.20
2019-02-23T21:35:29.940Z,17.80
2019-02-23T21:37:57.164Z,17.40
2019-02-23T21:40:24.673Z,17.17
2019-02-23T21:42:51.984Z,29.83
2019-02-23T21:45:19.476Z,27.23
2019-02-23T21:47:46.689Z,24.83
2019-02-23T21:50:14.183Z,111.07
2019-02-23T21:52:41.746Z,160.27
2019-02-23T21:55:08.969Z,59.97
2019-02-23T21:57:36.553Z,80.00
2019-02-23T22:00:04.181Z,32.27
2019-02-23T22:02:31.867Z,23.90
2019-02-23T22:04:59.436Z,21.37
2019-02-23T22:07:26.660Z,20.20
2019-02-23T22:09:53.973Z,19.63
2019-02-23T22:12:21.192Z,19.20
2019-02-23T22:14:48.422Z,18.60
2019-02-23T22:17:15.641Z,17.67
2019-02-23T22:19:43.293Z,17.50
2019-02-23T22:22:10.525Z,17.93
2019-02-23T22:24:38.065Z,16.83
2019-02-23T22:27:05.629Z,16.23
2019-02-23T22:29:33.211Z,16.47
2019-02-23T22:32:00.851Z,16.10
2019-02-23T22:34:28.099Z,15.60
2019-02-23T22:36:57.500Z,14.40
2019-02-23T22:39:24.739Z,13.80
2019-02-23T22:41:51.986Z,18.87
2019-02-23T22:44:19.560Z,13.10
2019-02-23T22:46:47.121Z,13.33
2019-02-23T22:49:14.354Z,18.20
2019-02-23T22:51:41.952Z,14.70
2019-02-23T22:54:09.599Z,16.53
2019-02-23T22:56:36.820Z,18.23
2019-02-23T22:59:04.051Z,17.83
2019-02-23T23:01:31.962Z,16.33
2019-02-23T23:03:59.827Z,17.73
2019-02-23T23:06:27.388Z,20.83
2019-02-23T23:08:54.625Z,17.23
2019-02-23T23:11:21.849Z,16.77
2019-02-23T23:13:49.347Z,14.63
2019-02-23T23:16:16.575Z,14.50
2019-02-23T23:18:43.800Z,12.63
2019-02-23T23:21:11.023Z,14.50
2019-02-23T23:23:38.662Z,17.17
2019-02-23T23:26:06.219Z,14.17
2019-02-23T23:28:33.440Z,14.57
2019-02-23T23:31:01.031Z,14.83
2019-02-23T23:33:28.576Z,15.30
2019-02-23T23:35:55.804Z,16.47
2019-02-23T23:38:23.019Z,13.87
2019-02-23T23:40:50.572Z,16.53
2019-02-23T23:43:18.219Z,16.17
2019-02-23T23:45:45.453Z,20.63
2019-02-23T23:48:12.674Z,17.30
2019-02-23T23:50:39.895Z,17.03
2019-02-23T23:53:07.424Z,25.37
2019-02-23T23:55:34.663Z,16.50
2019-02-23T23:58:02.248Z,28.00
